• Join FlightAware (Why Join?)
  • Login
  • US Flag 
06:40PM EST


 

Airport Tracker/Info


-or-


 

Live Flight TrackerFlight Track Log ✈ UAL6118 ✈ 11-Oct-2013 ✈ KCLL - KIAH

Flight Track Log - Related Links

Times and Time Zones

All times are in EDT time to prevent confusion due to time zone crossing. See the UAL6118 flight status page for this flight to view local times or setup timezone preferences in your user account.

Time Position Orientation Groundspeed Altitude Reporting Facility
EDT Latitude Longitude Course Direction KTS MPH feet Rate Location/Type
08:14PM 30.5433 -96.3542 173° South 163 188 2,400  Level Houston Center
08:15PM 30.5064 -96.3147 137° Southeast 223 257 4,700 2,160 Climbing Houston Center
08:15PM 30.5050 -96.3019 97° East 214 246 5,100 1,320 Climbing Houston Center
08:16PM 30.4946 -96.2031 139° Southeast  Level Estimated
08:16PM 30.4914 -96.2342 103° East 272 313 6,100  Level Houston Center
08:16PM 30.4897 -96.2186 97° East 256 295 6,100  Level Houston Center
08:17PM 30.4999 -96.1387 85° East  Level FlightAware Approximate
08:17PM 30.4750 -96.1414 102° East 278 320 6,100  Level Houston Center
08:17PM 30.4733 -96.1292 99° East 276 318 6,100  Level Houston Center
08:18PM 30.4667 -96.0868 133° Southeast  Level Estimated
08:18PM 30.4572 -96.0539 104° East 279 321 6,100  Level Houston Center
08:18PM 30.4564 -96.0361 93° East 279 321 6,100  Level Houston Center
08:19PM 30.4350 -95.9692 110° East 279 321 6,100 -120 Level Houston Center
08:19PM 30.4267 -95.9550 124° Southeast 297 342 6,000  Descending Houston Center
08:20PM 30.3831 -95.9025 134° Southeast 266 306 6,100 60 Climbing Houston Center
08:20PM 30.3769 -95.8925 125° Southeast 266 306 6,100  Level Houston Center
08:21PM 30.3261 -95.8511 145° Southeast 261 300 6,100  Level Houston Center
08:21PM 30.3203 -95.8461 144° Southeast 264 304 6,100 -600 Level Houston Center
08:22PM 30.2564 -95.8206 161° South 265 305 5,500 -720 Descending Houston Center
08:22PM 30.2517 -95.8161 141° Southeast 264 304 5,400 -1,020 Descending Houston Center
08:23PM 30.1883 -95.8092 175° South 246 283 4,500 -1,020 Descending Houston Center
08:23PM 30.1847 -95.8075 158° South 260 299 4,400 -540 Descending Houston Center
08:24PM 30.1250 -95.8069 180° South 247 284 4,000 -420 Descending Houston Center
08:24PM 30.1089 -95.7917 141° Southeast 240 276 4,000 -300 Level Houston Center
08:25PM 30.0639 -95.7561 146° Southeast 245 282 3,700 -600 Descending Houston Center
08:25PM 30.0531 -95.7456 140° Southeast 245 282 3,400 -720 Descending Houston Center
08:26PM 30.0194 -95.7033 133° Southeast 241 277 3,000 -420 Descending Houston Center
08:26PM 30.0147 -95.6847 106° East 245 282 3,000  Level Houston Center
08:27PM 30.0067 -95.6325 100° East 204 235 3,000  Level Houston Center
08:27PM 30.0064 -95.6169 91° East 228 262 3,000  Level Houston Center
08:28PM 30.0067 -95.5625 90° East 207 238 3,000  Level Houston Center
08:28PM 30.0081 -95.5525 81° East 206 237 3,000 -540 Level Houston Center
08:29PM 30.0053 -95.5000 93° East 192 221 2,500 -720 Descending Houston Center
08:29PM 30.0075 -95.4914 73° East 196 226 2,300 -900 Descending Houston Center
08:30PM 30.0069 -95.4492 91° East 162 186 1,600 -780 Descending Houston Center
08:30PM 30.0069 -95.4383 90° East 182 209 1,500 -600 Descending Houston Center
08:31PM 30.0075 -95.4081 89° East 124 143 1,000 -780 Descending Houston Center
08:31PM 30.0078 -95.3928 89° East 140 161 700 -720 Descending Houston Center
08:32PM 30.0061 -95.3694 95° East 121 139 300 -420 Descending Houston Center
08:32PM 30.0075 -95.3603 80° East 129 148 300  Level Houston Center
08:34PM 29.9833 -95.3333 131° Southeast  Level FlightAware Approximate